This is the latest recevied weather packets stored in our database for station/object M7PDA-1. If no packets are shown the sender has not sent any weather packets the latest 10 day(s).
| Time | Temp. | Humidity | Pressure | Rain* | Wind** | Luminosity | Snow |
|---|---|---|---|---|---|---|---|
| 1777304676 | 17.78° C | 55% | 1026.8 hPa | - | - | - | - |
| 1777303775 | 17.78° C | 55% | 1026.8 hPa | - | - | - | - |
| 1777302874 | 18.33° C | 55% | 1026.9 hPa | - | - | - | - |
| 1777301973 | 18.33° C | 55% | 1027 hPa | - | - | - | - |
| 1777301073 | 17.78° C | 56% | 1027 hPa | - | - | - | - |
| 1777300172 | 18.33° C | 56% | 1027.1 hPa | - | - | - | - |
| 1777299271 | 18.33° C | 57% | 1027.4 hPa | - | - | - | - |
| 1777298370 | 18.33° C | 57% | 1027.4 hPa | - | - | - | - |
| 1777297470 | 17.78° C | 57% | 1027.4 hPa | - | - | - | - |
| 1777296569 | 18.33° C | 60% | 1027.2 hPa | - | - | - | - |
| 1777295668 | 16.67° C | 62% | 1027.6 hPa | - | - | - | - |
| 1777294767 | 17.22° C | 62% | 1027.6 hPa | - | - | - | - |
| 1777293866 | 17.78° C | 62% | 1027.6 hPa | - | - | - | - |
| 1777292965 | 17.22° C | 64% | 1027.7 hPa | - | - | - | - |
| 1777292064 | 16.11° C | 65% | 1027.8 hPa | - | - | - | - |
| 1777291163 | 15.56° C | 66% | 1028 hPa | - | - | - | - |
| 1777290263 | 16.11° C | 67% | 1027.9 hPa | - | - | - | - |
| 1777289362 | 16.11° C | 67% | 1028 hPa | - | - | - | - |
| 1777288461 | 15.56° C | 67% | 1028 hPa | - | - | - | - |
| 1777287560 | 16.11° C | 67% | 1028.1 hPa | - | - | - | - |
| 1777286660 | 16.67° C | 66% | 1028 hPa | - | - | - | - |
| 1777285759 | 16.11° C | 68% | 1028 hPa | - | - | - | - |
| 1777284858 | 15.56° C | 69% | 1028.1 hPa | - | - | - | - |
| 1777283957 | 14.44° C | 72% | 1028.3 hPa | - | - | - | - |
| 1777283056 | 14.44° C | 73% | 1028.2 hPa | - | - | - | - |
* Rain since midnight (hover to see other rain measurements)
** Current wind speed in m/s (hover to see current wind gust speed)